createdAt,value
2022-09-11T00:00:57.400Z,82.00
2022-09-11T00:02:57.553Z,82.00
2022-09-11T00:04:57.311Z,82.00
2022-09-11T00:06:57.292Z,82.00
2022-09-11T00:08:57.374Z,82.00
2022-09-11T00:10:57.345Z,83.00
2022-09-11T00:12:57.367Z,83.00
2022-09-11T00:14:57.315Z,83.00
2022-09-11T00:16:57.299Z,83.00
2022-09-11T00:18:57.343Z,83.00
2022-09-11T00:20:57.325Z,83.00
2022-09-11T00:22:57.321Z,83.00
2022-09-11T00:24:57.387Z,83.00
2022-09-11T00:26:57.330Z,83.00
2022-09-11T00:28:57.397Z,83.00
2022-09-11T00:30:57.433Z,83.00
2022-09-11T00:32:57.318Z,83.00
2022-09-11T00:34:57.337Z,83.00
2022-09-11T00:36:57.357Z,83.00
2022-09-11T00:38:57.359Z,83.00
2022-09-11T00:40:57.324Z,83.00
2022-09-11T00:42:57.336Z,83.00
2022-09-11T00:44:57.354Z,83.00
2022-09-11T00:46:57.337Z,83.00
2022-09-11T00:48:57.349Z,83.00
2022-09-11T00:50:57.323Z,83.00
2022-09-11T00:52:57.382Z,83.00
2022-09-11T00:54:57.369Z,83.00
2022-09-11T00:56:57.327Z,83.00
2022-09-11T00:58:57.374Z,83.00
2022-09-11T01:00:57.480Z,83.00
2022-09-11T01:02:57.327Z,83.00
2022-09-11T01:04:57.365Z,83.00
2022-09-11T01:06:57.334Z,83.00
2022-09-11T01:08:57.354Z,83.00
2022-09-11T01:10:57.359Z,83.00
2022-09-11T01:12:57.363Z,83.00
2022-09-11T01:14:57.385Z,83.00
2022-09-11T01:16:57.357Z,83.00
2022-09-11T01:18:57.396Z,83.00
2022-09-11T01:20:57.510Z,83.00
2022-09-11T01:22:57.500Z,83.00
2022-09-11T01:24:57.389Z,83.00
2022-09-11T01:26:57.367Z,83.00
2022-09-11T01:28:57.384Z,83.00
2022-09-11T01:30:57.385Z,83.00
2022-09-11T01:32:57.391Z,83.00
2022-09-11T01:34:57.387Z,83.00
2022-09-11T01:36:57.504Z,83.00
2022-09-11T01:39:27.431Z,83.00
2022-09-11T01:41:27.391Z,83.00
2022-09-11T01:43:27.387Z,83.00
2022-09-11T01:45:27.402Z,83.00
2022-09-11T01:47:27.471Z,83.00
2022-09-11T01:49:27.394Z,83.00
2022-09-11T01:51:27.379Z,83.00
2022-09-11T01:53:27.377Z,83.00
2022-09-11T01:55:27.379Z,83.00
2022-09-11T01:57:27.397Z,83.00
2022-09-11T01:59:27.398Z,83.00
2022-09-11T02:01:27.421Z,83.00
2022-09-11T02:03:27.381Z,83.00
2022-09-11T02:05:27.433Z,83.00
2022-09-11T02:07:27.372Z,83.00
2022-09-11T02:09:27.380Z,83.00
2022-09-11T02:11:27.423Z,83.00
2022-09-11T02:13:27.937Z,83.00
2022-09-11T02:15:28.902Z,83.00
2022-09-11T02:17:27.390Z,83.00
2022-09-11T02:19:27.519Z,83.00
2022-09-11T02:21:27.420Z,83.00
2022-09-11T02:23:27.537Z,83.00
2022-09-11T02:25:27.393Z,83.00
2022-09-11T02:27:27.444Z,83.00
2022-09-11T02:29:27.476Z,83.00
2022-09-11T02:31:27.467Z,83.00
2022-09-11T02:33:27.441Z,83.00
2022-09-11T02:35:27.547Z,83.00
2022-09-11T02:37:27.440Z,83.00
2022-09-11T02:39:27.400Z,83.00
2022-09-11T02:41:27.457Z,83.00
2022-09-11T02:43:27.453Z,83.00
2022-09-11T02:45:27.478Z,83.00
2022-09-11T02:47:27.399Z,83.00
2022-09-11T02:49:27.441Z,83.00
2022-09-11T02:51:27.439Z,83.00
2022-09-11T02:53:27.414Z,83.00
2022-09-11T02:55:27.440Z,83.00
2022-09-11T02:57:27.401Z,83.00
2022-09-11T02:59:27.436Z,83.00
2022-09-11T03:01:27.442Z,83.00
2022-09-11T03:03:27.544Z,83.00
2022-09-11T03:05:27.487Z,83.00
2022-09-11T03:07:27.422Z,83.00
2022-09-11T03:09:27.443Z,83.00
2022-09-11T03:11:27.444Z,83.00
2022-09-11T03:13:27.471Z,83.00
2022-09-11T03:15:27.511Z,83.00
2022-09-11T03:17:27.431Z,83.00
2022-09-11T03:19:27.461Z,83.00
2022-09-11T03:21:27.433Z,83.00
2022-09-11T03:23:27.495Z,83.00
2022-09-11T03:25:27.425Z,83.00
2022-09-11T03:27:27.429Z,83.00
2022-09-11T03:29:27.427Z,83.00
2022-09-11T03:31:57.488Z,83.00
2022-09-11T03:33:57.508Z,83.00
2022-09-11T03:35:57.487Z,83.00
2022-09-11T03:37:57.473Z,83.00
2022-09-11T03:39:57.497Z,83.00
2022-09-11T03:41:57.449Z,83.00
2022-09-11T03:43:57.436Z,83.00
2022-09-11T03:45:57.595Z,83.00
2022-09-11T03:47:57.500Z,83.00
2022-09-11T03:49:57.444Z,83.00
2022-09-11T03:51:57.525Z,83.00
2022-09-11T03:53:57.443Z,83.00
2022-09-11T03:55:57.479Z,83.00
2022-09-11T03:57:57.550Z,83.00
2022-09-11T03:59:57.588Z,83.00
2022-09-11T04:01:57.570Z,83.00
2022-09-11T04:03:57.521Z,83.00
2022-09-11T04:07:50.476Z,83.00
2022-09-11T04:09:50.475Z,83.00
2022-09-11T04:11:50.551Z,83.00
2022-09-11T04:13:50.467Z,83.00
2022-09-11T04:15:50.513Z,83.00
2022-09-11T04:17:50.511Z,83.00
2022-09-11T04:19:50.498Z,83.00
2022-09-11T04:21:50.477Z,83.00
2022-09-11T04:23:50.510Z,83.00
2022-09-11T04:25:50.492Z,83.00
2022-09-11T04:27:50.537Z,83.00
2022-09-11T04:29:50.505Z,83.00
2022-09-11T04:31:50.536Z,83.00
2022-09-11T04:33:50.580Z,83.00
2022-09-11T04:35:50.509Z,83.00
2022-09-11T04:37:50.511Z,83.00
2022-09-11T04:39:50.581Z,84.00
2022-09-11T04:41:50.519Z,84.00
2022-09-11T04:43:50.579Z,83.00
2022-09-11T04:45:50.563Z,84.00
2022-09-11T04:47:50.588Z,84.00
2022-09-11T04:49:50.510Z,84.00
2022-09-11T04:51:50.515Z,84.00
2022-09-11T04:53:50.508Z,84.00
2022-09-11T04:55:50.546Z,84.00
2022-09-11T04:57:50.553Z,84.00
2022-09-11T05:00:20.553Z,84.00
2022-09-11T05:02:20.538Z,84.00
2022-09-11T05:04:25.277Z,84.00
2022-09-11T05:06:20.512Z,84.00
2022-09-11T05:08:20.533Z,84.00
2022-09-11T05:10:20.521Z,84.00
2022-09-11T05:12:20.527Z,84.00
2022-09-11T05:14:20.599Z,84.00
2022-09-11T05:16:20.593Z,84.00
2022-09-11T05:18:20.618Z,84.00
2022-09-11T05:20:20.522Z,84.00
2022-09-11T05:22:20.527Z,84.00
2022-09-11T05:24:20.648Z,84.00
2022-09-11T05:26:20.547Z,84.00
2022-09-11T05:28:20.533Z,84.00
2022-09-11T05:30:20.534Z,84.00
2022-09-11T05:32:20.565Z,84.00
2022-09-11T05:34:20.560Z,84.00
2022-09-11T05:36:20.537Z,84.00
2022-09-11T05:38:20.636Z,84.00
2022-09-11T05:40:20.528Z,84.00
2022-09-11T05:42:20.527Z,84.00
2022-09-11T05:44:20.573Z,84.00
2022-09-11T05:46:20.580Z,84.00
2022-09-11T05:48:20.655Z,84.00
2022-09-11T05:50:20.659Z,84.00
2022-09-11T05:52:20.568Z,84.00
2022-09-11T05:54:20.663Z,84.00
2022-09-11T05:56:20.577Z,84.00
2022-09-11T05:58:20.583Z,84.00
2022-09-11T06:00:20.553Z,84.00
2022-09-11T06:02:20.674Z,84.00
2022-09-11T06:04:20.659Z,84.00
2022-09-11T06:06:20.567Z,84.00
2022-09-11T06:08:20.557Z,84.00
2022-09-11T06:10:20.565Z,84.00
2022-09-11T06:12:20.561Z,84.00
2022-09-11T06:14:20.621Z,84.00
2022-09-11T06:16:20.709Z,84.00
2022-09-11T06:18:20.712Z,84.00
2022-09-11T06:20:20.576Z,84.00
2022-09-11T06:22:20.695Z,84.00
2022-09-11T06:24:20.598Z,84.00
2022-09-11T06:26:20.624Z,84.00
2022-09-11T06:28:20.574Z,84.00
2022-09-11T06:30:20.681Z,84.00
2022-09-11T06:32:20.575Z,84.00
2022-09-11T06:34:20.596Z,84.00
2022-09-11T06:36:20.617Z,84.00
2022-09-11T06:38:20.608Z,84.00
2022-09-11T06:40:20.585Z,84.00
2022-09-11T06:42:20.707Z,84.00
2022-09-11T06:44:20.593Z,84.00
2022-09-11T06:46:20.600Z,84.00
2022-09-11T06:48:20.589Z,84.00
2022-09-11T06:50:20.617Z,84.00
2022-09-11T06:52:20.607Z,84.00
2022-09-11T06:54:20.688Z,84.00
2022-09-11T06:56:50.609Z,84.00
2022-09-11T06:58:50.605Z,84.00
2022-09-11T07:00:50.641Z,84.00
2022-09-11T07:02:52.706Z,84.00
2022-09-11T07:04:50.619Z,84.00
2022-09-11T07:06:50.593Z,84.00
2022-09-11T07:08:50.749Z,84.00
2022-09-11T07:10:50.607Z,84.00
2022-09-11T07:12:50.622Z,84.00
2022-09-11T07:14:50.617Z,84.00
2022-09-11T07:16:50.641Z,84.00
2022-09-11T07:18:50.631Z,84.00
2022-09-11T07:20:50.724Z,84.00
2022-09-11T07:22:50.672Z,84.00
2022-09-11T07:24:50.617Z,84.00
2022-09-11T07:26:50.635Z,84.00
2022-09-11T07:28:50.649Z,84.00
2022-09-11T07:30:50.699Z,84.00
2022-09-11T07:32:50.613Z,85.00
2022-09-11T07:34:50.620Z,85.00
2022-09-11T07:36:50.766Z,85.00
2022-09-11T07:38:50.743Z,85.00
2022-09-11T07:40:50.745Z,85.00
2022-09-11T07:42:50.639Z,85.00
2022-09-11T07:44:50.680Z,85.00
2022-09-11T07:46:50.643Z,85.00
2022-09-11T07:48:50.631Z,85.00
2022-09-11T07:50:50.758Z,85.00
2022-09-11T07:52:50.638Z,85.00
2022-09-11T07:54:50.632Z,85.00
2022-09-11T07:56:50.712Z,85.00
2022-09-11T07:58:50.750Z,85.00
2022-09-11T08:00:50.705Z,85.00
2022-09-11T08:02:50.723Z,85.00
2022-09-11T08:04:50.753Z,85.00
2022-09-11T08:06:50.836Z,85.00
2022-09-11T08:08:50.740Z,85.00
2022-09-11T08:10:50.860Z,85.00
2022-09-11T08:12:50.665Z,85.00
2022-09-11T08:14:50.692Z,85.00
2022-09-11T08:16:50.759Z,85.00
2022-09-11T08:18:50.739Z,85.00
2022-09-11T08:20:50.720Z,85.00
2022-09-11T08:22:50.777Z,85.00
2022-09-11T08:24:50.747Z,85.00
2022-09-11T08:26:50.829Z,85.00
2022-09-11T08:28:50.775Z,84.00
2022-09-11T08:30:50.830Z,84.00
2022-09-11T08:32:53.284Z,84.00
2022-09-11T08:34:51.777Z,84.00
2022-09-11T08:36:50.780Z,84.00
2022-09-11T08:38:50.773Z,84.00
2022-09-11T08:40:50.797Z,84.00
2022-09-11T08:42:50.768Z,84.00
2022-09-11T08:44:50.775Z,84.00
2022-09-11T08:46:50.685Z,84.00
2022-09-11T08:48:50.811Z,84.00
2022-09-11T08:51:20.791Z,84.00
2022-09-11T08:53:20.770Z,84.00
2022-09-11T08:55:20.791Z,84.00
2022-09-11T08:57:20.801Z,84.00
2022-09-11T08:59:20.724Z,84.00
2022-09-11T09:01:23.804Z,84.00
2022-09-11T09:03:20.737Z,84.00
2022-09-11T09:05:20.808Z,84.00
2022-09-11T09:07:20.849Z,83.00
2022-09-11T09:09:20.791Z,83.00
2022-09-11T09:11:20.856Z,83.00
2022-09-11T09:13:20.838Z,83.00
2022-09-11T09:15:20.847Z,83.00
2022-09-11T09:17:20.723Z,83.00
2022-09-11T09:19:20.725Z,83.00
2022-09-11T09:21:20.806Z,82.00
2022-09-11T09:23:20.778Z,82.00
2022-09-11T09:25:20.789Z,82.00
2022-09-11T09:27:20.831Z,82.00
2022-09-11T09:29:20.876Z,82.00
2022-09-11T09:31:20.857Z,81.00
2022-09-11T09:33:20.739Z,81.00
2022-09-11T09:35:20.788Z,81.00
2022-09-11T09:37:20.813Z,81.00
2022-09-11T09:39:20.773Z,81.00
2022-09-11T09:41:20.859Z,81.00
2022-09-11T09:43:20.751Z,80.00
2022-09-11T09:45:20.846Z,80.00
2022-09-11T09:47:20.778Z,80.00
2022-09-11T09:49:21.162Z,80.00
2022-09-11T09:51:21.099Z,80.00
2022-09-11T09:53:20.808Z,80.00
2022-09-11T09:55:20.811Z,80.00
2022-09-11T09:57:20.830Z,80.00
2022-09-11T09:59:20.860Z,80.00
2022-09-11T10:01:20.837Z,79.00
2022-09-11T10:03:20.762Z,79.00
2022-09-11T10:05:20.797Z,79.00
2022-09-11T10:07:20.853Z,79.00
2022-09-11T10:09:20.903Z,79.00
2022-09-11T10:11:20.824Z,79.00
2022-09-11T10:13:20.894Z,79.00
2022-09-11T10:15:20.861Z,79.00
2022-09-11T10:17:20.878Z,78.00
2022-09-11T10:19:21.056Z,78.00
2022-09-11T10:21:20.948Z,77.00
2022-09-11T10:23:20.899Z,77.00
2022-09-11T10:25:20.813Z,77.00
2022-09-11T10:27:22.074Z,77.00
2022-09-11T10:29:20.949Z,78.00
2022-09-11T10:31:20.889Z,78.00
2022-09-11T10:33:20.862Z,78.00
2022-09-11T10:35:20.942Z,77.00
2022-09-11T10:37:20.954Z,76.00
2022-09-11T10:39:20.907Z,76.00
2022-09-11T10:41:21.146Z,76.00
2022-09-11T10:43:20.912Z,76.00
2022-09-11T10:45:20.861Z,76.00
2022-09-11T10:47:50.897Z,76.00
2022-09-11T10:49:51.101Z,77.00
2022-09-11T10:51:51.035Z,77.00
2022-09-11T10:53:50.961Z,78.00
2022-09-11T10:55:51.092Z,78.00
2022-09-11T10:57:51.065Z,78.00
2022-09-11T10:59:51.181Z,78.00
2022-09-11T11:01:39.468Z,78.00
2022-09-11T11:03:39.399Z,79.00
2022-09-11T11:05:39.288Z,79.00
2022-09-11T11:07:39.163Z,79.00
2022-09-11T11:09:39.187Z,80.00
2022-09-11T11:11:39.184Z,80.00
2022-09-11T11:13:39.216Z,80.00
2022-09-11T11:15:39.378Z,79.00
2022-09-11T11:17:39.215Z,79.00
2022-09-11T11:19:39.152Z,79.00
2022-09-11T11:21:39.553Z,79.00
2022-09-11T11:23:39.153Z,78.00
2022-09-11T11:25:39.189Z,79.00
2022-09-11T11:27:39.218Z,78.00
2022-09-11T11:29:39.235Z,78.00
2022-09-11T11:31:43.689Z,78.00
2022-09-11T11:33:39.253Z,78.00
2022-09-11T11:35:39.144Z,78.00
2022-09-11T11:37:39.276Z,77.00
2022-09-11T11:39:39.201Z,77.00
2022-09-11T11:41:39.256Z,77.00
2022-09-11T11:43:39.198Z,74.00
2022-09-11T11:45:39.315Z,74.00
2022-09-11T11:47:39.251Z,74.00
2022-09-11T11:49:39.250Z,74.00
2022-09-11T11:51:39.292Z,73.00
2022-09-11T11:53:39.151Z,73.00
2022-09-11T11:55:39.212Z,74.00
2022-09-11T11:57:39.243Z,74.00
2022-09-11T12:00:09.219Z,75.00
2022-09-11T12:02:09.393Z,75.00
2022-09-11T12:04:09.295Z,75.00
2022-09-11T12:06:09.272Z,76.00
2022-09-11T12:08:09.185Z,76.00
2022-09-11T12:10:09.348Z,76.00
2022-09-11T12:12:09.215Z,76.00
2022-09-11T12:14:09.257Z,77.00
2022-09-11T12:16:11.363Z,78.00
2022-09-11T12:18:09.284Z,78.00
2022-09-11T12:20:09.380Z,78.00
2022-09-11T12:22:09.301Z,78.00
2022-09-11T12:24:09.311Z,78.00
2022-09-11T12:26:09.241Z,78.00
2022-09-11T12:28:09.355Z,78.00
2022-09-11T12:30:09.242Z,78.00
2022-09-11T12:32:09.291Z,78.00
2022-09-11T12:34:09.278Z,78.00
2022-09-11T12:36:09.188Z,78.00
2022-09-11T12:38:09.330Z,79.00
2022-09-11T12:40:09.344Z,79.00
2022-09-11T12:42:09.320Z,79.00
2022-09-11T12:44:09.254Z,78.00
2022-09-11T12:46:09.349Z,78.00
2022-09-11T12:48:09.231Z,77.00
2022-09-11T12:50:09.299Z,77.00
2022-09-11T12:52:09.305Z,75.00
2022-09-11T12:54:09.258Z,75.00
2022-09-11T12:56:09.264Z,75.00
2022-09-11T12:58:09.322Z,75.00
2022-09-11T13:00:09.312Z,73.00
2022-09-11T13:02:09.374Z,73.00
2022-09-11T13:04:09.344Z,71.00
2022-09-11T13:06:09.343Z,71.00
2022-09-11T13:08:09.328Z,71.00
2022-09-11T13:10:09.277Z,71.00
2022-09-11T13:12:09.241Z,70.00
2022-09-11T13:14:09.279Z,71.00
2022-09-11T13:16:09.301Z,70.00
2022-09-11T13:18:09.294Z,70.00
2022-09-11T13:20:09.399Z,70.00
2022-09-11T13:22:09.555Z,71.00
2022-09-11T13:24:09.441Z,68.00
2022-09-11T13:26:09.355Z,68.00
2022-09-11T13:28:09.287Z,68.00
2022-09-11T13:30:09.346Z,67.00
2022-09-11T13:32:09.283Z,66.00
2022-09-11T13:34:09.345Z,67.00
2022-09-11T13:36:09.393Z,67.00
2022-09-11T13:38:09.324Z,63.00
2022-09-11T13:40:09.407Z,64.00
2022-09-11T13:42:09.247Z,64.00
2022-09-11T13:44:09.287Z,65.00
2022-09-11T13:46:09.336Z,65.00
2022-09-11T13:48:09.307Z,64.00
2022-09-11T13:50:09.388Z,65.00
2022-09-11T13:52:09.391Z,65.00
2022-09-11T13:54:09.417Z,65.00
2022-09-11T13:56:09.292Z,67.00
2022-09-11T13:58:09.281Z,67.00
2022-09-11T14:00:39.300Z,67.00
2022-09-11T14:02:39.381Z,68.00
2022-09-11T14:04:39.338Z,68.00
2022-09-11T14:06:39.374Z,69.00
2022-09-11T14:08:39.359Z,70.00
2022-09-11T14:10:39.369Z,71.00
2022-09-11T14:12:39.389Z,72.00
2022-09-11T14:14:39.291Z,72.00
2022-09-11T14:16:39.312Z,72.00
2022-09-11T14:18:39.343Z,72.00
2022-09-11T14:20:39.361Z,72.00
2022-09-11T14:22:39.429Z,72.00
2022-09-11T14:24:39.442Z,72.00
2022-09-11T14:26:39.305Z,73.00
2022-09-11T14:28:39.421Z,72.00
2022-09-11T14:30:39.320Z,72.00
2022-09-11T14:32:39.335Z,72.00
2022-09-11T14:34:39.354Z,71.00
2022-09-11T14:36:39.362Z,71.00
2022-09-11T14:38:39.390Z,71.00
2022-09-11T14:40:39.396Z,71.00
2022-09-11T14:42:39.311Z,71.00
2022-09-11T14:44:39.448Z,71.00
2022-09-11T14:46:39.371Z,71.00
2022-09-11T14:48:39.391Z,71.00
2022-09-11T14:50:39.378Z,71.00
2022-09-11T14:52:39.364Z,71.00
2022-09-11T14:54:39.384Z,71.00
2022-09-11T14:56:39.440Z,72.00
2022-09-11T14:58:39.387Z,72.00
2022-09-11T15:00:39.302Z,72.00
2022-09-11T15:02:39.361Z,72.00
2022-09-11T15:04:39.367Z,72.00
2022-09-11T15:06:39.387Z,73.00
2022-09-11T15:08:39.407Z,73.00
2022-09-11T15:10:39.420Z,73.00
2022-09-11T15:12:39.410Z,73.00
2022-09-11T15:14:55.712Z,71.00
2022-09-11T15:16:39.353Z,72.00
2022-09-11T15:18:39.359Z,72.00
2022-09-11T15:20:39.359Z,72.00
2022-09-11T15:22:39.412Z,72.00
2022-09-11T15:24:39.443Z,72.00
2022-09-11T15:26:39.421Z,72.00
2022-09-11T15:28:39.468Z,72.00
2022-09-11T15:30:39.365Z,72.00
2022-09-11T15:32:39.387Z,72.00
2022-09-11T15:34:39.611Z,71.00
2022-09-11T15:36:39.413Z,72.00
2022-09-11T15:38:39.445Z,72.00
2022-09-11T15:40:40.365Z,72.00
2022-09-11T15:42:39.794Z,72.00
2022-09-11T15:44:39.388Z,72.00
2022-09-11T15:46:39.477Z,69.00
2022-09-11T15:48:39.393Z,69.00
2022-09-11T15:50:39.423Z,69.00
2022-09-11T15:52:39.422Z,68.00
2022-09-11T15:54:39.465Z,69.00
2022-09-11T15:56:39.440Z,69.00
2022-09-11T15:58:39.499Z,70.00
2022-09-11T16:01:09.424Z,70.00
2022-09-11T16:03:09.339Z,70.00
2022-09-11T16:05:09.425Z,70.00
2022-09-11T16:07:09.438Z,70.00
2022-09-11T16:09:09.431Z,70.00
2022-09-11T16:11:09.441Z,70.00
2022-09-11T16:13:09.453Z,71.00
2022-09-11T16:15:09.388Z,71.00
2022-09-11T16:17:09.511Z,71.00
2022-09-11T16:19:09.411Z,71.00
2022-09-11T16:21:09.462Z,71.00
2022-09-11T16:23:09.473Z,71.00
2022-09-11T16:25:09.463Z,71.00
2022-09-11T16:27:09.511Z,71.00
2022-09-11T16:29:09.481Z,71.00
2022-09-11T16:31:09.588Z,71.00
2022-09-11T16:33:09.366Z,71.00
2022-09-11T16:35:09.457Z,71.00
2022-09-11T16:37:09.448Z,72.00
2022-09-11T16:39:09.459Z,72.00
2022-09-11T16:41:09.501Z,72.00
2022-09-11T16:43:09.500Z,73.00
2022-09-11T16:45:09.487Z,73.00
2022-09-11T16:47:09.533Z,73.00
2022-09-11T16:49:09.395Z,73.00
2022-09-11T16:51:09.485Z,73.00
2022-09-11T16:53:09.471Z,73.00
2022-09-11T16:55:09.488Z,73.00
2022-09-11T16:57:09.557Z,73.00
2022-09-11T16:59:09.506Z,73.00
2022-09-11T17:01:09.503Z,73.00
2022-09-11T17:03:09.450Z,73.00
2022-09-11T17:05:09.392Z,73.00
2022-09-11T17:07:09.431Z,73.00
2022-09-11T17:09:09.548Z,73.00
2022-09-11T17:11:09.476Z,73.00
2022-09-11T17:13:09.475Z,73.00
2022-09-11T17:15:09.582Z,73.00
2022-09-11T17:17:09.507Z,73.00
2022-09-11T17:19:09.436Z,73.00
2022-09-11T17:21:09.454Z,74.00
2022-09-11T17:23:09.540Z,74.00
2022-09-11T17:25:09.478Z,74.00
2022-09-11T17:27:09.476Z,74.00
2022-09-11T17:29:09.605Z,74.00
2022-09-11T17:31:09.602Z,74.00
2022-09-11T17:33:09.544Z,74.00
2022-09-11T17:35:09.492Z,74.00
2022-09-11T17:37:09.545Z,74.00
2022-09-11T17:39:09.502Z,75.00
2022-09-11T17:41:09.519Z,75.00
2022-09-11T17:43:09.494Z,75.00
2022-09-11T17:45:09.545Z,75.00
2022-09-11T17:47:09.579Z,75.00
2022-09-11T17:49:09.629Z,75.00
2022-09-11T17:51:09.500Z,75.00
2022-09-11T17:53:09.543Z,75.00
2022-09-11T17:55:09.648Z,75.00
2022-09-11T17:57:09.554Z,76.00
2022-09-11T17:59:09.545Z,76.00
2022-09-11T18:01:39.641Z,76.00
2022-09-11T18:03:39.647Z,76.00
2022-09-11T18:05:39.579Z,77.00
2022-09-11T18:07:39.496Z,77.00
2022-09-11T18:09:39.575Z,77.00
2022-09-11T18:13:19.740Z,77.00
2022-09-11T18:15:19.761Z,78.00
2022-09-11T18:17:19.850Z,78.00
2022-09-11T18:19:19.806Z,79.00
2022-09-11T18:21:19.821Z,79.00
2022-09-11T18:23:19.802Z,79.00
2022-09-11T18:25:19.771Z,79.00
2022-09-11T18:27:19.944Z,79.00
2022-09-11T18:29:20.138Z,79.00
2022-09-11T18:31:19.836Z,79.00
2022-09-11T18:33:19.820Z,79.00
2022-09-11T18:35:19.816Z,79.00
2022-09-11T18:37:19.819Z,79.00
2022-09-11T18:39:19.773Z,79.00
2022-09-11T18:41:49.737Z,79.00
2022-09-11T18:43:49.862Z,79.00
2022-09-11T18:45:49.829Z,79.00
2022-09-11T18:47:49.817Z,79.00
2022-09-11T18:49:49.837Z,79.00
2022-09-11T18:51:49.830Z,79.00
2022-09-11T18:53:49.864Z,79.00
2022-09-11T18:55:49.889Z,79.00
2022-09-11T18:57:49.825Z,79.00
2022-09-11T18:59:49.821Z,79.00
2022-09-11T19:01:49.868Z,79.00
2022-09-11T19:03:49.828Z,79.00
2022-09-11T19:05:49.894Z,79.00
2022-09-11T19:07:49.914Z,79.00
2022-09-11T19:09:49.894Z,79.00
2022-09-11T19:11:49.750Z,79.00
2022-09-11T19:13:49.794Z,79.00
2022-09-11T19:15:49.868Z,79.00
2022-09-11T19:17:49.824Z,79.00
2022-09-11T19:19:49.842Z,79.00
2022-09-11T19:21:49.872Z,79.00
2022-09-11T19:23:49.781Z,79.00
2022-09-11T19:25:49.760Z,79.00
2022-09-11T19:27:49.817Z,79.00
2022-09-11T19:29:49.858Z,79.00
2022-09-11T19:31:49.872Z,79.00
2022-09-11T19:33:49.848Z,79.00
2022-09-11T19:35:49.858Z,79.00
2022-09-11T19:37:49.893Z,80.00
2022-09-11T19:39:49.854Z,80.00
2022-09-11T19:41:49.815Z,80.00
2022-09-11T19:43:49.780Z,80.00
2022-09-11T19:45:50.297Z,80.00
2022-09-11T19:47:49.844Z,80.00
2022-09-11T19:49:49.867Z,80.00
2022-09-11T19:51:49.891Z,80.00
2022-09-11T19:53:49.921Z,80.00
2022-09-11T19:55:49.945Z,80.00
2022-09-11T19:57:49.796Z,80.00
2022-09-11T19:59:49.802Z,80.00
2022-09-11T20:01:49.894Z,80.00
2022-09-11T20:03:49.861Z,80.00
2022-09-11T20:05:49.872Z,80.00
2022-09-11T20:07:49.764Z,80.00
2022-09-11T20:09:49.773Z,80.00
2022-09-11T20:11:49.815Z,80.00
2022-09-11T20:13:49.859Z,80.00
2022-09-11T20:15:49.872Z,80.00
2022-09-11T20:17:49.921Z,80.00
2022-09-11T20:19:50.004Z,80.00
2022-09-11T20:21:49.883Z,80.00
2022-09-11T20:23:49.809Z,80.00
2022-09-11T20:25:50.027Z,80.00
2022-09-11T20:27:49.786Z,80.00
2022-09-11T20:29:49.842Z,80.00
2022-09-11T20:31:49.898Z,80.00
2022-09-11T20:36:19.959Z,80.00
2022-09-11T20:38:19.941Z,80.00
2022-09-11T20:40:19.947Z,80.00
2022-09-11T20:42:19.981Z,80.00
2022-09-11T20:44:19.862Z,80.00
2022-09-11T20:46:19.940Z,80.00
2022-09-11T20:48:19.908Z,80.00
2022-09-11T20:50:19.853Z,80.00
2022-09-11T20:52:19.955Z,80.00
2022-09-11T20:54:19.932Z,80.00
2022-09-11T20:56:19.935Z,80.00
2022-09-11T20:58:19.872Z,80.00
2022-09-11T21:00:19.882Z,80.00
2022-09-11T21:02:19.929Z,80.00
2022-09-11T21:04:19.849Z,80.00
2022-09-11T21:06:24.783Z,80.00
2022-09-11T21:08:19.817Z,80.00
2022-09-11T21:10:19.832Z,80.00
2022-09-11T21:12:19.857Z,80.00
2022-09-11T21:14:19.868Z,80.00
2022-09-11T21:16:20.090Z,80.00
2022-09-11T21:18:19.862Z,80.00
2022-09-11T21:20:19.937Z,80.00
2022-09-11T21:22:19.832Z,80.00
2022-09-11T21:24:19.832Z,80.00
2022-09-11T21:26:19.866Z,80.00
2022-09-11T21:28:19.853Z,80.00
2022-09-11T21:30:19.870Z,80.00
2022-09-11T21:32:19.804Z,80.00
2022-09-11T21:34:19.833Z,80.00
2022-09-11T21:36:19.841Z,80.00
2022-09-11T21:38:19.962Z,80.00
2022-09-11T21:40:19.935Z,80.00
2022-09-11T21:42:19.883Z,80.00
2022-09-11T21:44:19.884Z,80.00
2022-09-11T21:46:19.892Z,80.00
2022-09-11T21:48:19.927Z,80.00
2022-09-11T21:50:19.852Z,80.00
2022-09-11T21:52:19.861Z,81.00
2022-09-11T21:54:19.896Z,81.00
2022-09-11T21:56:19.880Z,81.00
2022-09-11T21:58:19.860Z,81.00
2022-09-11T22:00:19.886Z,81.00
2022-09-11T22:02:19.949Z,81.00
2022-09-11T22:04:20.049Z,81.00
2022-09-11T22:06:19.851Z,81.00
2022-09-11T22:08:19.940Z,81.00
2022-09-11T22:10:19.854Z,81.00
2022-09-11T22:12:19.850Z,81.00
2022-09-11T22:14:19.870Z,81.00
2022-09-11T22:16:20.007Z,81.00
2022-09-11T22:18:19.849Z,81.00
2022-09-11T22:20:19.945Z,81.00
2022-09-11T22:22:19.878Z,81.00
2022-09-11T22:24:20.002Z,81.00
2022-09-11T22:26:49.897Z,81.00
2022-09-11T22:28:49.857Z,81.00
2022-09-11T22:30:49.889Z,81.00
2022-09-11T22:32:49.991Z,81.00
2022-09-11T22:34:49.887Z,81.00
2022-09-11T22:36:49.881Z,81.00
2022-09-11T22:38:49.878Z,81.00
2022-09-11T22:40:49.934Z,81.00
2022-09-11T22:42:50.007Z,81.00
2022-09-11T22:44:50.047Z,81.00
2022-09-11T22:46:49.882Z,81.00
2022-09-11T22:48:49.939Z,81.00
2022-09-11T22:50:49.935Z,81.00
2022-09-11T22:52:49.949Z,81.00
2022-09-11T22:54:49.909Z,81.00
2022-09-11T22:56:49.877Z,81.00
2022-09-11T22:58:49.914Z,81.00
2022-09-11T23:00:49.946Z,81.00
2022-09-11T23:02:49.901Z,81.00
2022-09-11T23:04:49.890Z,81.00
2022-09-11T23:06:49.881Z,81.00
2022-09-11T23:08:50.041Z,81.00
2022-09-11T23:10:49.958Z,81.00
2022-09-11T23:12:49.892Z,81.00
2022-09-11T23:14:49.937Z,81.00
2022-09-11T23:16:49.933Z,81.00
2022-09-11T23:18:49.928Z,81.00
2022-09-11T23:20:53.555Z,81.00
2022-09-11T23:22:49.914Z,81.00
2022-09-11T23:24:49.892Z,81.00
2022-09-11T23:26:49.893Z,81.00
2022-09-11T23:28:49.904Z,81.00
2022-09-11T23:30:49.928Z,81.00
2022-09-11T23:32:49.951Z,81.00
2022-09-11T23:34:49.884Z,81.00
2022-09-11T23:36:50.004Z,81.00
2022-09-11T23:38:49.982Z,81.00
2022-09-11T23:40:49.916Z,81.00
2022-09-11T23:42:50.023Z,81.00
2022-09-11T23:44:49.914Z,81.00
2022-09-11T23:46:49.951Z,81.00
2022-09-11T23:48:49.999Z,81.00
2022-09-11T23:50:49.928Z,81.00
2022-09-11T23:52:50.016Z,81.00
2022-09-11T23:54:49.918Z,81.00
2022-09-11T23:56:49.982Z,81.00
2022-09-11T23:58:49.970Z,81.00
